createdAt,value
2023-03-30T00:00:01.668Z,54.25
2023-03-30T00:02:10.547Z,54.20
2023-03-30T00:04:15.575Z,54.10
2023-03-30T00:06:23.458Z,54.08
2023-03-30T00:08:29.914Z,54.16
2023-03-30T00:10:38.776Z,54.03
2023-03-30T00:12:43.740Z,53.98
2023-03-30T00:14:48.509Z,54.27
2023-03-30T00:16:53.590Z,54.07
2023-03-30T00:18:58.574Z,53.97
2023-03-30T00:21:03.920Z,54.09
2023-03-30T00:23:08.978Z,53.77
2023-03-30T00:25:15.332Z,53.91
2023-03-30T00:27:22.756Z,54.08
2023-03-30T00:29:27.716Z,54.01
2023-03-30T00:31:32.834Z,54.02
2023-03-30T00:33:45.663Z,53.67
2023-03-30T00:35:55.518Z,54.09
2023-03-30T00:38:01.718Z,53.87
2023-03-30T00:40:08.302Z,54.02
2023-03-30T00:42:17.970Z,53.84
2023-03-30T00:44:53.605Z,53.84
2023-03-30T00:47:01.894Z,53.91
2023-03-30T00:49:10.198Z,53.71
2023-03-30T00:51:15.304Z,53.99
2023-03-30T00:53:25.851Z,53.88
2023-03-30T00:55:35.493Z,53.87
2023-03-30T00:57:45.687Z,53.82
2023-03-30T00:59:52.449Z,53.73
2023-03-30T01:01:57.482Z,53.88
2023-03-30T01:04:07.476Z,53.66
2023-03-30T01:06:13.731Z,53.75
2023-03-30T01:08:20.305Z,53.66
2023-03-30T01:10:25.136Z,53.85
2023-03-30T01:12:31.161Z,53.53
2023-03-30T01:14:36.762Z,53.51
2023-03-30T01:16:47.335Z,53.51
2023-03-30T01:18:58.444Z,53.65
2023-03-30T01:21:55.794Z,53.50
2023-03-30T01:24:35.228Z,53.33
2023-03-30T01:26:54.256Z,53.38
2023-03-30T01:29:04.600Z,53.07
2023-03-30T01:31:29.044Z,53.49
2023-03-30T01:33:56.942Z,53.30
2023-03-30T01:36:52.323Z,52.87
2023-03-30T01:39:23.163Z,53.34
2023-03-30T01:41:36.192Z,53.12
2023-03-30T01:43:48.748Z,53.22
2023-03-30T01:45:58.591Z,52.89
2023-03-30T01:48:11.510Z,52.90
2023-03-30T01:50:20.576Z,53.15
2023-03-30T01:52:32.116Z,53.08
2023-03-30T01:54:45.589Z,53.17
2023-03-30T01:56:55.849Z,53.05
2023-03-30T01:59:05.466Z,52.97
2023-03-30T02:01:14.629Z,52.87
2023-03-30T02:03:24.460Z,53.02
2023-03-30T02:05:31.341Z,53.02
2023-03-30T02:07:39.858Z,53.25
2023-03-30T02:09:49.941Z,52.93
2023-03-30T02:11:56.337Z,52.92
2023-03-30T02:14:03.036Z,52.96
2023-03-30T02:16:16.005Z,53.18
2023-03-30T02:18:23.183Z,53.16
2023-03-30T02:20:29.080Z,53.16
2023-03-30T02:22:34.693Z,53.11
2023-03-30T02:24:39.695Z,52.99
2023-03-30T02:26:48.068Z,52.98
2023-03-30T02:28:53.308Z,52.82
2023-03-30T02:30:59.010Z,52.93
2023-03-30T02:33:08.007Z,52.83
2023-03-30T02:35:26.787Z,53.05
2023-03-30T02:37:45.763Z,52.96
2023-03-30T02:40:01.065Z,53.14
2023-03-30T02:42:33.339Z,52.85
2023-03-30T02:44:47.430Z,53.05
2023-03-30T02:47:05.263Z,53.05
2023-03-30T02:49:18.852Z,53.11
2023-03-30T02:51:42.915Z,53.22
2023-03-30T02:54:07.261Z,53.05
2023-03-30T02:56:39.723Z,53.05
2023-03-30T02:58:52.424Z,52.93
2023-03-30T03:01:01.918Z,53.02
2023-03-30T03:03:24.264Z,53.00
2023-03-30T03:05:32.694Z,53.33
2023-03-30T03:07:48.713Z,53.04
2023-03-30T03:09:53.711Z,53.21
2023-03-30T03:12:00.849Z,53.13
2023-03-30T03:14:15.809Z,53.58
2023-03-30T03:16:22.776Z,53.52
2023-03-30T03:18:42.814Z,53.50
2023-03-30T03:20:48.245Z,53.60
2023-03-30T03:22:53.242Z,53.84
2023-03-30T03:24:58.252Z,53.82
2023-03-30T03:27:09.807Z,54.17
2023-03-30T03:29:39.677Z,54.31
2023-03-30T03:31:45.037Z,54.15
2023-03-30T03:33:51.076Z,54.17
2023-03-30T03:36:04.896Z,54.24
2023-03-30T03:38:12.234Z,54.65
2023-03-30T03:40:18.194Z,54.66
2023-03-30T03:42:23.042Z,54.76
2023-03-30T03:44:41.602Z,54.75
2023-03-30T03:46:46.870Z,54.83
2023-03-30T03:48:53.063Z,54.63
2023-03-30T03:50:59.537Z,54.76
2023-03-30T03:53:07.878Z,54.97
2023-03-30T03:55:14.274Z,55.12
2023-03-30T03:57:24.153Z,54.88
2023-03-30T03:59:29.350Z,55.36
2023-03-30T04:01:36.844Z,54.96
2023-03-30T04:03:41.753Z,55.32
2023-03-30T04:05:47.478Z,55.20
2023-03-30T04:07:53.699Z,55.28
2023-03-30T04:09:58.637Z,55.30
2023-03-30T04:12:22.528Z,55.30
2023-03-30T04:14:50.473Z,55.30
2023-03-30T04:17:17.015Z,55.55
2023-03-30T04:19:46.002Z,55.55
2023-03-30T04:22:20.005Z,56.14
2023-03-30T04:24:54.591Z,56.05
2023-03-30T04:27:26.001Z,56.14
2023-03-30T04:30:06.800Z,56.39
2023-03-30T04:32:35.008Z,56.09
2023-03-30T04:35:03.600Z,56.44
2023-03-30T04:37:18.664Z,56.78
2023-03-30T04:39:54.271Z,56.91
2023-03-30T04:42:20.395Z,57.04
2023-03-30T04:44:43.823Z,57.15
2023-03-30T04:47:07.361Z,57.27
2023-03-30T04:49:37.265Z,57.95
2023-03-30T04:52:02.293Z,58.18
2023-03-30T04:54:33.237Z,58.23
2023-03-30T04:56:58.609Z,58.32
2023-03-30T04:59:21.925Z,58.41
2023-03-30T05:01:46.145Z,58.64
2023-03-30T05:04:11.485Z,58.30
2023-03-30T05:06:49.905Z,58.77
2023-03-30T05:09:08.625Z,58.57
2023-03-30T05:11:31.918Z,58.94
2023-03-30T05:13:47.528Z,59.35
2023-03-30T05:16:12.528Z,59.31
2023-03-30T05:18:36.148Z,59.30
2023-03-30T05:21:09.917Z,59.29
2023-03-30T05:23:20.113Z,59.27
2023-03-30T05:25:40.838Z,59.39
2023-03-30T05:28:05.934Z,59.58
2023-03-30T05:30:24.706Z,59.50
2023-03-30T05:32:48.134Z,59.15
2023-03-30T05:35:15.891Z,59.54
2023-03-30T05:37:30.399Z,59.58
2023-03-30T05:39:43.260Z,59.96
2023-03-30T05:42:23.398Z,59.60
2023-03-30T05:44:51.097Z,59.94
2023-03-30T05:47:14.154Z,60.09
2023-03-30T05:49:42.323Z,60.07
2023-03-30T05:51:56.920Z,60.32
2023-03-30T05:54:20.677Z,60.47
2023-03-30T05:56:52.491Z,60.62
2023-03-30T05:59:10.455Z,60.50
2023-03-30T06:01:45.213Z,60.77
2023-03-30T06:03:51.666Z,61.16
2023-03-30T06:05:56.985Z,60.84
2023-03-30T06:08:02.216Z,61.26
2023-03-30T06:10:08.283Z,61.56
2023-03-30T06:12:15.898Z,61.63
2023-03-30T06:14:21.852Z,61.39
2023-03-30T06:17:02.446Z,61.33
2023-03-30T06:19:07.359Z,61.38
2023-03-30T06:21:12.607Z,61.69
2023-03-30T06:23:38.356Z,61.47
2023-03-30T06:25:53.243Z,61.73
2023-03-30T06:28:06.492Z,61.75
2023-03-30T06:30:15.527Z,61.60
2023-03-30T06:32:23.235Z,62.08
2023-03-30T06:34:34.712Z,62.03
2023-03-30T06:36:44.785Z,62.06
2023-03-30T06:38:51.653Z,62.11
2023-03-30T06:40:56.979Z,62.29
2023-03-30T06:43:07.049Z,61.93
2023-03-30T06:45:18.442Z,62.20
2023-03-30T06:47:23.868Z,62.05
2023-03-30T06:49:31.380Z,62.43
2023-03-30T06:52:04.908Z,62.43
2023-03-30T06:54:12.993Z,62.37
2023-03-30T06:56:26.888Z,62.43
2023-03-30T06:59:00.373Z,62.38
2023-03-30T07:01:12.539Z,62.16
2023-03-30T07:03:36.198Z,62.15
2023-03-30T07:05:50.592Z,62.13
2023-03-30T07:08:15.897Z,62.04
2023-03-30T07:10:27.560Z,62.49
2023-03-30T07:12:34.500Z,62.13
2023-03-30T07:14:42.296Z,62.41
2023-03-30T07:16:48.465Z,62.53
2023-03-30T07:18:53.342Z,62.24
2023-03-30T07:21:00.798Z,62.19
2023-03-30T07:23:15.181Z,62.48
2023-03-30T07:25:20.712Z,62.29
2023-03-30T07:27:27.392Z,62.25
2023-03-30T07:29:35.240Z,62.29
2023-03-30T07:31:43.054Z,62.52
2023-03-30T07:33:50.124Z,62.46
2023-03-30T07:35:59.548Z,62.57
2023-03-30T07:38:05.527Z,62.74
2023-03-30T07:40:14.973Z,62.38
2023-03-30T07:42:20.360Z,62.59
2023-03-30T07:44:29.291Z,62.67
2023-03-30T07:46:35.425Z,62.57
2023-03-30T07:48:44.069Z,62.76
2023-03-30T07:50:49.007Z,62.36
2023-03-30T07:52:54.227Z,62.19
2023-03-30T07:54:59.019Z,62.21
2023-03-30T07:57:21.349Z,62.20
2023-03-30T07:59:27.237Z,61.93
2023-03-30T08:01:41.047Z,61.68
2023-03-30T08:03:55.890Z,61.57
2023-03-30T08:06:04.924Z,61.94
2023-03-30T08:08:14.034Z,61.86
2023-03-30T08:10:19.156Z,61.92
2023-03-30T08:12:23.961Z,61.68
2023-03-30T08:14:29.628Z,61.54
2023-03-30T08:16:35.265Z,61.64
2023-03-30T08:18:41.617Z,61.60
2023-03-30T08:20:53.805Z,61.42
2023-03-30T08:22:58.913Z,61.60
2023-03-30T08:25:03.775Z,61.71
2023-03-30T08:27:09.258Z,61.72
2023-03-30T08:29:15.191Z,61.53
2023-03-30T08:31:21.317Z,61.73
2023-03-30T08:33:26.941Z,61.63
2023-03-30T08:35:32.052Z,61.67
2023-03-30T08:37:39.369Z,61.34
2023-03-30T08:39:44.117Z,61.53
2023-03-30T08:42:02.868Z,61.32
2023-03-30T08:44:14.010Z,61.39
2023-03-30T08:46:21.187Z,61.76
2023-03-30T08:48:28.942Z,61.30
2023-03-30T08:50:36.518Z,61.60
2023-03-30T08:52:44.809Z,61.50
2023-03-30T08:54:49.991Z,61.50
2023-03-30T08:57:03.706Z,61.48
2023-03-30T08:59:23.446Z,61.15
2023-03-30T09:01:34.937Z,61.00
2023-03-30T09:03:43.793Z,61.27
2023-03-30T09:05:55.707Z,61.19
2023-03-30T09:08:12.297Z,60.87
2023-03-30T09:10:20.134Z,61.02
2023-03-30T09:12:34.450Z,61.12
2023-03-30T09:14:45.250Z,60.72
2023-03-30T09:17:00.667Z,60.74
2023-03-30T09:19:12.827Z,61.04
2023-03-30T09:21:18.194Z,60.70
2023-03-30T09:23:26.055Z,60.66
2023-03-30T09:25:37.475Z,60.93
2023-03-30T09:27:47.942Z,60.87
2023-03-30T09:29:54.803Z,60.93
2023-03-30T09:32:06.809Z,60.99
2023-03-30T09:34:23.229Z,60.81
2023-03-30T09:36:33.621Z,60.99
2023-03-30T09:38:43.948Z,60.65
2023-03-30T09:41:07.386Z,60.45
2023-03-30T09:43:17.798Z,60.73
2023-03-30T09:45:27.750Z,59.84
2023-03-30T09:47:39.173Z,59.55
2023-03-30T09:49:44.508Z,59.15
2023-03-30T09:51:57.238Z,59.06
2023-03-30T09:54:07.442Z,58.45
2023-03-30T09:56:20.175Z,58.01
2023-03-30T09:58:31.303Z,58.11
2023-03-30T10:00:38.191Z,58.06
2023-03-30T10:02:43.353Z,58.24
2023-03-30T10:05:06.777Z,57.91
2023-03-30T10:07:23.425Z,58.06
2023-03-30T10:09:31.002Z,57.67
2023-03-30T10:11:39.979Z,57.76
2023-03-30T10:13:46.656Z,57.45
2023-03-30T10:15:56.946Z,57.21
2023-03-30T10:18:05.730Z,56.86
2023-03-30T10:20:27.120Z,57.13
2023-03-30T10:22:32.532Z,57.48
2023-03-30T10:24:53.657Z,57.26
2023-03-30T10:27:00.372Z,57.04
2023-03-30T10:29:08.020Z,57.40
2023-03-30T10:31:19.258Z,57.44
2023-03-30T10:33:24.810Z,57.50
2023-03-30T10:35:35.717Z,57.34
2023-03-30T10:37:43.239Z,56.98
2023-03-30T10:39:52.429Z,57.31
2023-03-30T10:41:59.836Z,56.88
2023-03-30T10:44:18.248Z,56.31
2023-03-30T10:46:26.379Z,56.26
2023-03-30T10:48:50.715Z,55.89
2023-03-30T10:51:02.951Z,56.09
2023-03-30T10:53:22.879Z,55.97
2023-03-30T10:55:37.522Z,55.67
2023-03-30T10:57:51.607Z,55.71
2023-03-30T11:00:37.808Z,55.87
2023-03-30T11:02:52.177Z,55.63
2023-03-30T11:05:04.432Z,55.71
2023-03-30T11:07:20.961Z,55.77
2023-03-30T11:09:31.347Z,55.48
2023-03-30T11:11:44.849Z,54.88
2023-03-30T11:13:54.135Z,54.92
2023-03-30T11:16:03.954Z,54.86
2023-03-30T11:18:16.635Z,54.65
2023-03-30T11:20:27.662Z,55.13
2023-03-30T11:22:39.835Z,54.71
2023-03-30T11:24:46.063Z,54.66
2023-03-30T11:27:01.115Z,54.84
2023-03-30T11:29:19.455Z,54.76
2023-03-30T11:31:38.673Z,54.96
2023-03-30T11:33:48.045Z,54.88
2023-03-30T11:35:57.054Z,55.22
2023-03-30T11:38:09.745Z,54.87
2023-03-30T11:40:19.604Z,54.94
2023-03-30T11:42:31.470Z,55.24
2023-03-30T11:44:36.360Z,55.45
2023-03-30T11:46:48.264Z,55.02
2023-03-30T11:49:11.019Z,55.38
2023-03-30T11:51:29.963Z,55.34
2023-03-30T11:53:41.734Z,55.47
2023-03-30T11:56:08.403Z,55.22
2023-03-30T11:58:27.721Z,55.04
2023-03-30T12:00:46.246Z,55.46
2023-03-30T12:02:58.655Z,55.16
2023-03-30T12:05:08.833Z,55.29
2023-03-30T12:07:23.473Z,55.24
2023-03-30T12:09:31.908Z,55.29
2023-03-30T12:11:42.255Z,55.02
2023-03-30T12:13:52.214Z,54.87
2023-03-30T12:16:02.488Z,54.87
2023-03-30T12:18:15.545Z,54.86
2023-03-30T12:20:42.960Z,55.01
2023-03-30T12:22:53.548Z,55.23
2023-03-30T12:25:04.448Z,55.44
2023-03-30T12:31:27.392Z,55.47
2023-03-30T12:33:38.209Z,55.81
2023-03-30T12:36:02.370Z,55.88
2023-03-30T12:38:09.390Z,55.98
2023-03-30T12:40:23.019Z,55.95
2023-03-30T12:42:34.713Z,56.18
2023-03-30T12:44:55.544Z,56.39
2023-03-30T12:47:12.607Z,56.34
2023-03-30T12:49:29.808Z,56.50
2023-03-30T12:51:55.159Z,56.14
2023-03-30T12:54:13.449Z,56.56
2023-03-30T12:56:29.172Z,56.38
2023-03-30T12:59:13.447Z,56.85
2023-03-30T13:01:42.827Z,56.50
2023-03-30T13:03:53.254Z,57.07
2023-03-30T13:06:01.330Z,56.91
2023-03-30T13:08:09.375Z,56.90
2023-03-30T13:10:39.838Z,56.77
2023-03-30T13:12:49.530Z,56.77
2023-03-30T13:15:01.500Z,56.58
2023-03-30T13:17:19.939Z,56.56
2023-03-30T13:19:29.312Z,56.72
2023-03-30T13:21:50.074Z,56.93
2023-03-30T13:24:28.587Z,56.73
2023-03-30T13:26:45.114Z,56.85
2023-03-30T13:29:02.339Z,56.95
2023-03-30T13:31:21.437Z,56.76
2023-03-30T13:33:31.145Z,56.71
2023-03-30T13:35:59.317Z,56.88
2023-03-30T13:38:33.501Z,56.68
2023-03-30T13:41:01.545Z,56.72
2023-03-30T13:43:16.358Z,56.58
2023-03-30T13:45:33.789Z,56.75
2023-03-30T13:47:57.440Z,56.51
2023-03-30T13:50:13.663Z,56.76
2023-03-30T13:52:22.240Z,56.78
2023-03-30T13:54:30.490Z,56.92
2023-03-30T13:56:38.608Z,56.68
2023-03-30T13:58:49.509Z,57.01
2023-03-30T14:00:57.265Z,57.02
2023-03-30T14:03:03.756Z,57.18
2023-03-30T14:05:23.288Z,57.05
2023-03-30T14:07:30.471Z,57.27
2023-03-30T14:09:35.681Z,57.40
2023-03-30T14:11:44.897Z,57.60
2023-03-30T14:13:53.947Z,57.29
2023-03-30T14:15:59.196Z,57.42
2023-03-30T14:18:06.249Z,57.81
2023-03-30T14:20:27.890Z,57.73
2023-03-30T14:22:33.732Z,57.64
2023-03-30T14:24:39.175Z,57.58
2023-03-30T14:26:44.728Z,58.09
2023-03-30T14:28:50.881Z,57.62
2023-03-30T14:30:58.033Z,57.99
2023-03-30T14:33:10.350Z,57.77
2023-03-30T14:35:19.582Z,57.86
2023-03-30T14:37:28.994Z,58.05
2023-03-30T14:39:36.025Z,58.20
2023-03-30T14:41:41.788Z,58.04
2023-03-30T14:43:53.696Z,58.43
2023-03-30T14:46:01.460Z,58.19
2023-03-30T14:48:06.482Z,58.14
2023-03-30T14:50:12.413Z,58.34
2023-03-30T14:52:21.757Z,58.35
2023-03-30T14:54:30.640Z,58.70
2023-03-30T14:56:35.994Z,58.85
2023-03-30T14:58:41.250Z,58.56
2023-03-30T15:00:46.795Z,58.78
2023-03-30T15:02:54.894Z,58.77
2023-03-30T15:05:00.369Z,58.88
2023-03-30T15:07:05.598Z,58.70
2023-03-30T15:09:17.574Z,58.82
2023-03-30T15:11:28.953Z,59.02
2023-03-30T15:13:39.095Z,59.24
2023-03-30T15:15:44.421Z,59.29
2023-03-30T15:17:53.487Z,58.99
2023-03-30T15:20:01.272Z,59.18
2023-03-30T15:22:11.309Z,59.52
2023-03-30T15:24:20.048Z,59.24
2023-03-30T15:26:29.369Z,59.34
2023-03-30T15:28:36.537Z,59.35
2023-03-30T15:30:44.109Z,59.35
2023-03-30T15:32:50.037Z,59.27
2023-03-30T15:35:09.975Z,59.16
2023-03-30T15:37:25.722Z,59.32
2023-03-30T15:39:34.180Z,59.43
2023-03-30T15:42:01.601Z,59.22
2023-03-30T15:44:14.405Z,58.95
2023-03-30T15:46:20.306Z,59.32
2023-03-30T15:48:28.669Z,58.77
2023-03-30T15:50:33.575Z,58.67
2023-03-30T15:52:40.646Z,58.96
2023-03-30T15:54:47.906Z,58.87
2023-03-30T15:57:00.163Z,58.92
2023-03-30T15:59:06.090Z,58.82
2023-03-30T16:01:16.607Z,58.81
2023-03-30T16:03:36.347Z,59.09
2023-03-30T16:05:41.180Z,58.89
2023-03-30T16:07:46.124Z,58.86
2023-03-30T16:09:51.443Z,59.24
2023-03-30T16:12:01.697Z,59.34
2023-03-30T16:14:07.671Z,59.03
2023-03-30T16:16:14.101Z,59.12
2023-03-30T16:18:19.137Z,58.86
2023-03-30T16:20:25.886Z,58.91
2023-03-30T16:22:30.717Z,58.62
2023-03-30T16:24:36.004Z,58.45
2023-03-30T16:26:40.911Z,57.83
2023-03-30T16:28:48.411Z,58.09
2023-03-30T16:30:55.853Z,57.52
2023-03-30T16:33:00.838Z,57.56
2023-03-30T16:35:06.245Z,57.27
2023-03-30T16:37:12.653Z,56.51
2023-03-30T16:39:21.540Z,56.57
2023-03-30T16:41:26.673Z,56.36
2023-03-30T16:43:31.955Z,56.50
2023-03-30T16:45:39.735Z,56.10
2023-03-30T16:47:44.669Z,55.82
2023-03-30T16:49:50.162Z,55.56
2023-03-30T16:51:58.211Z,55.62
2023-03-30T16:54:03.368Z,55.17
2023-03-30T16:56:08.719Z,55.34
2023-03-30T16:58:16.669Z,55.02
2023-03-30T17:00:25.422Z,54.88
2023-03-30T17:02:32.843Z,54.81
2023-03-30T17:04:37.989Z,54.79
2023-03-30T17:06:42.907Z,54.72
2023-03-30T17:08:48.453Z,54.71
2023-03-30T17:10:55.077Z,54.43
2023-03-30T17:13:00.457Z,54.34
2023-03-30T17:15:07.935Z,54.42
2023-03-30T17:17:14.481Z,54.52
2023-03-30T17:19:22.329Z,54.57
2023-03-30T17:21:27.824Z,54.36
2023-03-30T17:23:35.230Z,54.57
2023-03-30T17:25:42.171Z,54.38
2023-03-30T17:27:47.044Z,54.35
2023-03-30T17:29:52.036Z,54.33
2023-03-30T17:31:57.096Z,54.23
2023-03-30T17:34:01.915Z,54.45
2023-03-30T17:36:15.303Z,54.36
2023-03-30T17:38:20.297Z,54.20
2023-03-30T17:40:27.933Z,54.20
2023-03-30T17:42:33.164Z,54.32
2023-03-30T17:44:38.310Z,54.13
2023-03-30T17:46:43.767Z,54.09
2023-03-30T17:48:48.748Z,54.31
2023-03-30T17:50:54.197Z,54.20
2023-03-30T17:53:02.325Z,54.33
2023-03-30T17:55:07.876Z,53.96
2023-03-30T17:57:13.754Z,54.33
2023-03-30T17:59:19.706Z,54.21
2023-03-30T18:01:24.687Z,54.58
2023-03-30T18:03:30.013Z,54.51
2023-03-30T18:05:36.421Z,54.27
2023-03-30T18:07:41.371Z,54.18
2023-03-30T18:09:49.569Z,54.26
2023-03-30T18:11:54.603Z,54.13
2023-03-30T18:14:00.197Z,54.41
2023-03-30T18:16:06.274Z,54.22
2023-03-30T18:18:14.088Z,54.30
2023-03-30T18:20:25.176Z,54.04
2023-03-30T18:22:30.908Z,54.42
2023-03-30T18:24:36.085Z,54.17
2023-03-30T18:26:43.983Z,54.23
2023-03-30T18:28:48.847Z,54.21
2023-03-30T18:30:57.671Z,54.01
2023-03-30T18:33:03.068Z,54.20
2023-03-30T18:35:09.709Z,54.25
2023-03-30T18:37:14.798Z,54.33
2023-03-30T18:39:21.591Z,54.10
2023-03-30T18:41:27.506Z,54.16
2023-03-30T18:43:36.175Z,54.19
2023-03-30T18:45:43.119Z,53.96
2023-03-30T18:47:48.745Z,54.04
2023-03-30T18:49:53.658Z,53.97
2023-03-30T18:51:58.876Z,54.25
2023-03-30T18:54:04.008Z,53.96
2023-03-30T18:56:10.608Z,54.02
2023-03-30T18:58:18.704Z,53.83
2023-03-30T19:00:30.156Z,53.97
2023-03-30T19:02:35.332Z,54.25
2023-03-30T19:04:42.113Z,54.18
2023-03-30T19:06:48.277Z,53.88
2023-03-30T19:08:54.022Z,54.11
2023-03-30T19:11:00.547Z,54.11
2023-03-30T19:13:06.050Z,54.14
2023-03-30T19:15:20.131Z,54.07
2023-03-30T19:17:27.967Z,54.11
2023-03-30T19:19:32.916Z,53.94
2023-03-30T19:21:38.253Z,54.29
2023-03-30T19:23:43.351Z,54.03
2023-03-30T19:25:49.100Z,54.00
2023-03-30T19:28:03.130Z,54.25
2023-03-30T19:30:11.418Z,54.26
2023-03-30T19:32:17.024Z,53.96
2023-03-30T19:34:24.641Z,53.90
2023-03-30T19:36:30.145Z,53.89
2023-03-30T19:38:35.529Z,54.18
2023-03-30T19:40:40.936Z,54.04
2023-03-30T19:42:45.863Z,53.86
2023-03-30T19:44:51.403Z,53.84
2023-03-30T19:46:56.864Z,53.61
2023-03-30T19:49:02.552Z,53.75
2023-03-30T19:51:10.349Z,53.46
2023-03-30T19:53:15.430Z,53.78
2023-03-30T19:55:21.684Z,53.75
2023-03-30T19:57:26.960Z,53.95
2023-03-30T19:59:32.217Z,53.61
2023-03-30T20:01:37.352Z,53.95
2023-03-30T20:03:42.333Z,54.01
2023-03-30T20:05:51.093Z,53.66
2023-03-30T20:07:58.630Z,54.00
2023-03-30T20:10:03.920Z,53.81
2023-03-30T20:12:09.479Z,53.85
2023-03-30T20:14:14.388Z,54.13
2023-03-30T20:16:26.167Z,53.67
2023-03-30T20:18:32.508Z,53.87
2023-03-30T20:20:38.020Z,53.94
2023-03-30T20:22:44.993Z,53.69
2023-03-30T20:24:53.379Z,53.99
2023-03-30T20:26:58.410Z,54.10
2023-03-30T20:29:04.176Z,53.96
2023-03-30T20:31:09.099Z,54.13
2023-03-30T20:33:14.613Z,53.87
2023-03-30T20:35:20.602Z,54.05
2023-03-30T20:37:26.050Z,54.03
2023-03-30T20:39:31.006Z,54.12
2023-03-30T20:41:42.708Z,53.98
2023-03-30T20:43:56.850Z,54.14
2023-03-30T20:46:09.662Z,53.95
2023-03-30T20:48:16.553Z,54.11
2023-03-30T20:50:21.599Z,54.41
2023-03-30T20:52:26.978Z,54.35
2023-03-30T20:54:33.012Z,54.14
2023-03-30T20:56:41.396Z,54.13
2023-03-30T20:58:46.537Z,54.27
2023-03-30T21:00:52.143Z,54.18
2023-03-30T21:02:57.313Z,54.37
2023-03-30T21:05:02.368Z,54.14
2023-03-30T21:07:10.375Z,53.82
2023-03-30T21:09:15.284Z,53.89
2023-03-30T21:11:20.677Z,54.10
2023-03-30T21:13:28.543Z,53.93
2023-03-30T21:15:33.517Z,53.97
2023-03-30T21:17:38.625Z,54.07
2023-03-30T21:19:43.582Z,54.07
2023-03-30T21:21:48.790Z,53.65
2023-03-30T21:23:53.829Z,53.76
2023-03-30T21:26:03.240Z,53.60
2023-03-30T21:28:08.464Z,53.89
2023-03-30T21:30:17.563Z,53.75
2023-03-30T21:32:22.566Z,53.84
2023-03-30T21:34:27.454Z,53.53
2023-03-30T21:36:32.592Z,53.31
2023-03-30T21:38:37.879Z,53.30
2023-03-30T21:40:43.001Z,53.47
2023-03-30T21:42:48.010Z,53.45
2023-03-30T21:44:53.152Z,53.40
2023-03-30T21:47:00.758Z,53.34
2023-03-30T21:49:05.778Z,53.35
2023-03-30T21:51:14.517Z,53.39
2023-03-30T21:53:20.454Z,53.45
2023-03-30T21:55:25.434Z,53.19
2023-03-30T21:57:30.410Z,53.54
2023-03-30T21:59:35.225Z,53.53
2023-03-30T22:01:40.282Z,53.14
2023-03-30T22:03:48.780Z,53.39
2023-03-30T22:05:53.765Z,53.21
2023-03-30T22:07:58.697Z,53.61
2023-03-30T22:10:04.029Z,53.44
2023-03-30T22:12:09.635Z,53.47
2023-03-30T22:14:14.590Z,53.54
2023-03-30T22:16:22.659Z,53.54
2023-03-30T22:18:28.445Z,53.20
2023-03-30T22:20:39.265Z,53.16
2023-03-30T22:22:44.346Z,53.54
2023-03-30T22:24:49.137Z,53.65
2023-03-30T22:26:54.213Z,53.53
2023-03-30T22:28:59.419Z,53.66
2023-03-30T22:31:04.740Z,53.48
2023-03-30T22:33:10.094Z,53.53
2023-03-30T22:35:15.206Z,53.57
2023-03-30T22:37:23.077Z,53.54
2023-03-30T22:39:28.424Z,53.31
2023-03-30T22:41:34.097Z,53.38
2023-03-30T22:43:39.362Z,53.59
2023-03-30T22:45:46.319Z,53.59
2023-03-30T22:47:51.619Z,53.79
2023-03-30T22:49:56.803Z,53.41
2023-03-30T22:52:02.488Z,53.69
2023-03-30T22:54:10.411Z,53.75
2023-03-30T22:56:15.528Z,53.70
2023-03-30T22:58:20.346Z,53.79
2023-03-30T23:00:25.652Z,54.00
2023-03-30T23:02:31.371Z,53.68
2023-03-30T23:04:36.444Z,53.82
2023-03-30T23:06:41.542Z,53.72
2023-03-30T23:08:48.701Z,54.18
2023-03-30T23:10:57.616Z,54.07
2023-03-30T23:13:02.583Z,54.24
2023-03-30T23:15:08.511Z,54.49
2023-03-30T23:17:13.638Z,54.07
2023-03-30T23:19:19.220Z,54.10
2023-03-30T23:21:24.811Z,54.36
2023-03-30T23:23:29.661Z,54.33
2023-03-30T23:25:34.853Z,54.54
2023-03-30T23:27:42.312Z,54.57
2023-03-30T23:29:47.245Z,54.41
2023-03-30T23:31:53.884Z,54.54
2023-03-30T23:33:59.528Z,54.69
2023-03-30T23:36:06.404Z,54.73
2023-03-30T23:38:12.150Z,54.77
2023-03-30T23:40:17.234Z,54.40
2023-03-30T23:42:22.875Z,54.17
2023-03-30T23:44:31.145Z,54.28
2023-03-30T23:46:36.072Z,54.38
2023-03-30T23:48:41.310Z,54.21
2023-03-30T23:50:48.472Z,54.62
2023-03-30T23:52:53.575Z,54.55
2023-03-30T23:55:02.012Z,54.55
2023-03-30T23:57:07.325Z,54.51
2023-03-30T23:59:13.663Z,54.61
